Time;durP1;ratioP1;P1;durP2;ratioP2;P2;SDS_P1;SDS_P2;PMS_P1;PMS_P2;Temp;Humidity;BMP_temperature;BMP_pressure;BME280_temperature;BME280_humidity;BME280_pressure;Samples;Min_cycle;Max_cycle;Signal;HPM_P1;HPM_P2
2021/12/31 00:02:12;;;;;;;12.23;10.37;;;;;;;8.65;66.44;95123.63;5105913;28;20465;-77
2021/12/31 00:04:37;;;;;;;13.50;10.27;;;;;;;8.87;65.70;95129.84;5105993;28;20201;-76
2021/12/31 00:07:03;;;;;;;14.03;10.77;;;;;;;9.23;63.74;95124.09;5106322;28;20248;-77
2021/12/31 00:09:28;;;;;;;14.83;11.67;;;;;;;9.23;64.06;95120.69;5105624;28;20199;-77
2021/12/31 00:11:54;;;;;;;11.33;9.57;;;;;;;9.03;64.68;95128.13;5086849;28;20204;-77
2021/12/31 00:14:22;;;;;;;12.03;10.60;;;;;;;9.05;65.38;95129.59;5105720;28;20161;-78
2021/12/31 00:16:48;;;;;;;13.43;8.87;;;;;;;8.99;64.03;95138.09;5105420;28;20189;-77
2021/12/31 00:19:14;;;;;;;10.33;9.23;;;;;;;8.25;66.99;95141.00;5105610;28;20732;-77
2021/12/31 00:21:43;;;;;;;13.57;10.63;;;;;;;7.90;68.00;95150.84;5098091;28;20439;-78
2021/12/31 00:24:09;;;;;;;15.37;11.77;;;;;;;8.83;65.40;95151.25;5085650;28;20457;-77
2021/12/31 00:26:34;;;;;;;11.80;10.60;;;;;;;9.19;64.48;95144.50;5083608;28;20408;-78
2021/12/31 00:29:00;;;;;;;15.07;11.43;;;;;;;8.89;64.85;95140.13;5085260;28;20257;-77
2021/12/31 00:31:26;;;;;;;13.50;9.30;;;;;;;8.98;64.93;95139.91;5083454;28;20186;-77
2021/12/31 00:33:52;;;;;;;15.93;12.10;;;;;;;8.57;65.85;95134.06;5085055;28;20170;-78
2021/12/31 00:36:18;;;;;;;12.87;10.87;;;;;;;8.10;67.62;95127.88;5083896;28;20946;-76
2021/12/31 00:38:43;;;;;;;12.70;10.57;;;;;;;8.09;67.67;95148.88;5085713;28;20424;-76
2021/12/31 00:41:09;;;;;;;15.57;11.93;;;;;;;7.42;69.93;95157.72;5084811;28;20178;-77
2021/12/31 00:43:34;;;;;;;15.07;11.47;;;;;;;7.75;68.56;95161.13;5085209;28;20186;-77
2021/12/31 00:46:02;;;;;;;14.30;12.03;;;;;;;8.19;67.12;95159.91;5085318;28;20182;-77
2021/12/31 00:48:28;;;;;;;13.77;10.20;;;;;;;7.99;67.48;95149.88;5083964;28;20246;-76
2021/12/31 00:50:54;;;;;;;19.17;13.57;;;;;;;8.24;67.22;95135.97;5085065;28;20415;-78
2021/12/31 00:53:19;;;;;;;13.00;11.13;;;;;;;8.48;65.41;95119.44;5071544;28;20435;-76
2021/12/31 00:55:45;;;;;;;11.77;8.37;;;;;;;7.95;67.18;95112.09;5064657;28;20665;-76
2021/12/31 00:58:10;;;;;;;12.67;11.07;;;;;;;8.63;66.32;95098.66;5068625;28;20186;-77
2021/12/31 01:00:36;;;;;;;18.70;13.90;;;;;;;8.43;66.37;95099.09;5072716;28;20185;-78
2021/12/31 01:03:02;;;;;;;16.77;12.37;;;;;;;8.58;65.54;95091.38;5109493;28;20252;-77
2021/12/31 01:05:27;;;;;;;17.03;11.87;;;;;;;8.23;66.34;95105.66;5109889;28;20192;-78
2021/12/31 01:07:53;;;;;;;16.13;12.40;;;;;;;8.68;65.36;95112.84;5091223;28;20451;-77
2021/12/31 01:10:19;;;;;;;15.20;10.70;;;;;;;8.77;64.43;95111.81;5108341;28;20201;-77
2021/12/31 01:12:46;;;;;;;15.03;12.23;;;;;;;8.36;66.33;95109.34;5102543;28;20259;-77
2021/12/31 01:15:22;;;;;;;14.33;11.77;;;;;;;8.84;64.86;95121.56;5091717;28;20496;-79
2021/12/31 01:20:38;;;;;;;14.00;11.30;;;;;;;8.22;66.24;95128.31;5080111;28;20435;-78
2021/12/31 01:23:04;;;;;;;13.90;11.77;;;;;;;7.93;67.51;95128.84;5092363;28;20434;-77
2021/12/31 01:25:30;;;;;;;16.50;10.77;;;;;;;8.44;66.76;95118.16;5110109;28;20917;-78
2021/12/31 01:27:55;;;;;;;14.73;11.60;;;;;;;8.67;65.05;95136.47;5091434;28;20949;-76
2021/12/31 01:30:21;;;;;;;13.40;10.20;;;;;;;8.29;66.65;95138.88;5091608;28;20281;-77
2021/12/31 01:32:47;;;;;;;9.33;8.27;;;;;;;8.20;66.63;95132.88;5091578;28;20181;-76
2021/12/31 01:35:14;;;;;;;9.73;8.13;;;;;;;8.43;65.97;95140.00;5091479;28;20527;-76
2021/12/31 01:37:40;;;;;;;10.17;8.43;;;;;;;8.34;66.14;95147.81;5091415;28;20189;-79
2021/12/31 01:40:06;;;;;;;13.23;8.97;;;;;;;8.08;66.70;95126.38;5108990;28;20832;-77
2021/12/31 01:42:33;;;;;;;9.53;8.53;;;;;;;8.42;65.80;95130.56;5090280;28;20188;-77
2021/12/31 01:45:13;;;;;;;9.20;8.40;;;;;;;8.34;64.93;95132.16;5090829;28;20419;-77
2021/12/31 01:47:56;;;;;;;12.00;9.90;;;;;;;8.82;64.29;95131.34;5090220;28;20414;-78
2021/12/31 01:50:24;;;;;;;11.57;8.23;;;;;;;8.52;65.15;95139.81;5108448;28;20470;-77
2021/12/31 01:52:50;;;;;;;10.73;8.70;;;;;;;7.97;66.81;95140.59;5089985;28;20411;-77
2021/12/31 01:55:16;;;;;;;10.13;7.77;;;;;;;7.92;67.36;95148.88;5108833;28;20466;-77
2021/12/31 01:57:43;;;;;;;11.63;8.77;;;;;;;7.93;66.91;95145.31;5089821;28;20617;-77
2021/12/31 02:00:10;;;;;;;8.87;7.90;;;;;;;7.53;68.98;95149.59;5090276;28;20419;-76
2021/12/31 02:02:36;;;;;;;11.80;7.60;;;;;;;8.05;66.87;95152.78;5090249;28;20424;-77
2021/12/31 02:05:04;;;;;;;9.37;7.80;;;;;;;8.00;67.49;95155.88;5088314;28;20515;-77
2021/12/31 02:07:30;;;;;;;7.47;6.57;;;;;;;7.77;67.75;95145.34;5088343;28;20909;-76
2021/12/31 02:09:56;;;;;;;12.03;9.67;;;;;;;7.82;67.57;95148.25;5086856;28;20497;-78
2021/12/31 02:12:22;;;;;;;8.93;7.90;;;;;;;7.85;67.92;95149.72;5088204;28;20500;-76
2021/12/31 02:14:51;;;;;;;12.43;8.10;;;;;;;7.95;66.84;95153.78;5087914;28;20188;-77
2021/12/31 02:17:17;;;;;;;10.40;7.53;;;;;;;7.33;69.02;95150.88;5087470;28;20432;-77
2021/12/31 02:20:00;;;;;;;11.30;9.00;;;;;;;7.49;68.32;95152.66;5070764;28;20455;-77
2021/12/31 02:22:28;;;;;;;9.63;7.03;;;;;;;7.33;68.35;95145.66;5102455;28;20458;-76
2021/12/31 02:24:55;;;;;;;9.90;7.33;;;;;;;7.54;68.39;95140.78;5089878;28;20442;-77
2021/12/31 02:27:23;;;;;;;10.70;7.63;;;;;;;7.87;66.87;95158.19;5089441;28;20451;-77
2021/12/31 02:29:48;;;;;;;10.37;9.00;;;;;;;7.72;67.98;95156.25;5107341;28;20528;-77
2021/12/31 02:32:13;;;;;;;11.10;8.50;;;;;;;7.96;67.27;95165.81;5106582;28;20544;-76
2021/12/31 02:34:39;;;;;;;9.20;7.23;;;;;;;7.59;67.22;95159.34;5107550;28;20176;-77
2021/12/31 02:37:04;;;;;;;9.80;8.27;;;;;;;7.51;68.20;95156.75;5107521;28;20169;-76
2021/12/31 02:39:30;;;;;;;8.40;6.80;;;;;;;7.37;68.99;95155.56;5107199;28;20189;-76
2021/12/31 02:41:55;;;;;;;12.40;5.73;;;;;;;7.66;67.92;95150.88;5089258;28;20177;-78
2021/12/31 02:44:21;;;;;;;10.13;8.87;;;;;;;7.74;67.73;95161.28;5107098;28;20232;-77
2021/12/31 02:46:46;;;;;;;12.53;8.03;;;;;;;7.23;69.06;95154.44;5107277;28;20271;-76
2021/12/31 02:49:12;;;;;;;12.53;7.80;;;;;;;7.57;68.70;95174.31;5088898;28;20268;-76
2021/12/31 02:51:38;;;;;;;9.97;5.33;;;;;;;7.21;68.64;95177.22;5105827;28;20209;-76
2021/12/31 02:54:09;;;;;;;8.30;7.00;;;;;;;7.43;68.13;95173.16;5106729;28;20192;-76
2021/12/31 02:56:35;;;;;;;10.43;7.43;;;;;;;7.77;65.63;95187.00;5106819;28;20260;-77
2021/12/31 02:59:01;;;;;;;10.73;8.40;;;;;;;7.44;67.05;95192.22;5088248;28;20492;-77
2021/12/31 03:01:27;;;;;;;10.20;8.30;;;;;;;7.47;67.64;95191.88;5104535;28;20510;-77
2021/12/31 03:03:55;;;;;;;8.30;7.50;;;;;;;7.53;67.48;95190.41;5086700;28;20400;-77
2021/12/31 03:06:21;;;;;;;9.43;7.30;;;;;;;7.50;66.18;95181.16;5086291;28;20174;-77
2021/12/31 03:08:50;;;;;;;9.13;7.33;;;;;;;7.38;66.75;95182.41;5068580;28;20483;-77
2021/12/31 03:11:19;;;;;;;12.37;8.07;;;;;;;7.33;67.00;95180.31;5087863;28;20477;-77
2021/12/31 03:13:51;;;;;;;10.40;7.90;;;;;;;7.50;66.44;95186.34;5106937;28;20399;-77
2021/12/31 03:16:21;;;;;;;8.20;6.90;;;;;;;7.68;65.97;95187.97;5106749;28;20411;-76
2021/12/31 03:18:48;;;;;;;7.13;6.47;;;;;;;7.08;66.93;95194.28;5088457;28;20404;-77
2021/12/31 03:21:21;;;;;;;9.93;7.27;;;;;;;7.75;65.51;95196.78;5106352;28;20422;-76
2021/12/31 03:23:48;;;;;;;8.33;4.20;;;;;;;7.20;66.45;95203.38;5088341;28;20407;-76
2021/12/31 03:26:13;;;;;;;8.57;7.33;;;;;;;7.42;66.28;95204.59;5087906;28;20411;-77
2021/12/31 03:28:39;;;;;;;10.53;8.10;;;;;;;7.90;64.31;95205.56;5106109;28;20414;-77
2021/12/31 03:31:04;;;;;;;6.70;5.17;;;;;;;7.34;65.84;95207.16;5105949;28;20248;-79
2021/12/31 03:33:30;;;;;;;8.40;6.50;;;;;;;7.68;65.62;95219.25;5087899;28;20188;-78
2021/12/31 03:35:55;;;;;;;11.27;7.07;;;;;;;7.94;64.37;95219.09;5106158;28;20189;-77
2021/12/31 03:38:21;;;;;;;10.20;8.20;;;;;;;7.58;64.76;95216.78;5106087;28;20584;-76
2021/12/31 03:40:47;;;;;;;7.70;6.83;;;;;;;7.69;64.34;95218.28;5105305;28;20264;-77
2021/12/31 03:43:13;;;;;;;8.50;7.13;;;;;;;7.91;63.31;95207.22;5087785;28;20177;-77
2021/12/31 03:45:40;;;;;;;8.37;7.43;;;;;;;7.88;63.27;95228.38;5106872;28;20426;-77
2021/12/31 03:48:05;;;;;;;8.07;7.20;;;;;;;7.93;63.77;95220.88;5087712;28;20419;-78
2021/12/31 03:50:31;;;;;;;8.90;7.30;;;;;;;8.18;62.35;95232.09;5106038;28;20559;-78
2021/12/31 03:52:56;;;;;;;9.37;7.70;;;;;;;8.11;63.04;95231.13;5087951;28;20189;-77
2021/12/31 03:55:22;;;;;;;8.23;5.80;;;;;;;7.96;63.49;95228.38;5106193;28;20181;-77
2021/12/31 03:57:48;;;;;;;10.40;8.70;;;;;;;7.76;63.91;95234.91;5087600;28;20177;-76
2021/12/31 04:00:14;;;;;;;12.80;8.60;;;;;;;7.67;64.66;95238.47;5105380;28;20197;-76
2021/12/31 04:02:39;;;;;;;8.20;6.47;;;;;;;6.95;67.00;95236.34;5105452;28;20803;-77
2021/12/31 04:05:05;;;;;;;10.57;6.57;;;;;;;6.91;66.57;95241.03;5106001;28;20438;-77
2021/12/31 04:07:31;;;;;;;10.47;7.30;;;;;;;7.18;66.49;95236.56;5104343;28;20189;-77
2021/12/31 04:09:56;;;;;;;8.90;5.13;;;;;;;7.17;65.24;95227.97;5099657;28;20965;-76
2021/12/31 04:12:22;;;;;;;9.40;6.97;;;;;;;7.23;64.68;95222.13;5087538;28;20223;-77
2021/12/31 04:14:48;;;;;;;9.40;7.63;;;;;;;6.97;65.82;95224.00;5105609;28;20587;-76
2021/12/31 04:17:13;;;;;;;10.60;7.40;;;;;;;6.89;66.20;95219.56;5105791;28;20181;-77
2021/12/31 04:19:40;;;;;;;12.13;8.10;;;;;;;6.93;66.03;95225.28;5105739;28;20246;-77
2021/12/31 04:22:07;;;;;;;8.30;6.63;;;;;;;6.92;65.87;95215.81;5105910;28;20230;-76
2021/12/31 04:27:11;;;;;;;9.13;7.53;;;;;;;6.83;66.50;95215.81;5105551;28;20827;-76
2021/12/31 04:29:38;;;;;;;8.77;6.80;;;;;;;7.22;65.42;95220.47;5105182;28;20474;-77
2021/12/31 04:32:04;;;;;;;7.87;6.23;;;;;;;7.33;64.29;95221.16;5106623;28;20478;-76
2021/12/31 04:34:30;;;;;;;12.57;8.57;;;;;;;7.27;64.99;95225.22;5109293;28;20500;-77
2021/12/31 04:36:56;;;;;;;10.40;7.70;;;;;;;7.55;63.87;95220.56;5091224;28;20426;-77
2021/12/31 04:39:22;;;;;;;9.60;7.50;;;;;;;7.81;63.00;95224.78;5108655;28;20434;-77
2021/12/31 04:41:48;;;;;;;6.93;6.20;;;;;;;7.93;62.02;95238.28;5091020;28;20240;-78
2021/12/31 04:44:13;;;;;;;6.80;6.10;;;;;;;7.32;62.70;95240.34;5109233;28;20185;-78
2021/12/31 04:46:39;;;;;;;8.53;6.80;;;;;;;6.98;64.32;95234.25;5109146;28;20497;-77
2021/12/31 04:49:06;;;;;;;6.80;5.90;;;;;;;6.64;66.21;95231.66;5090705;28;20304;-77
2021/12/31 04:51:32;;;;;;;4.30;3.80;;;;;;;6.56;65.92;95235.00;5109550;28;20177;-77
2021/12/31 04:53:57;;;;;;;8.10;6.43;;;;;;;6.82;66.27;95241.97;5109323;28;20442;-77
2021/12/31 04:56:23;;;;;;;8.63;6.40;;;;;;;7.57;63.02;95251.63;5109186;28;20415;-77
2021/12/31 04:58:48;;;;;;;9.40;6.90;;;;;;;7.53;62.47;95235.53;5090984;28;20536;-77
2021/12/31 05:01:14;;;;;;;9.27;7.17;;;;;;;7.48;63.09;95240.38;5091312;28;20204;-77
2021/12/31 05:03:40;;;;;;;8.93;6.90;;;;;;;7.19;63.78;95235.59;5108559;28;20169;-77
2021/12/31 05:06:05;;;;;;;9.70;7.30;;;;;;;7.25;63.98;95227.16;5109026;28;20486;-77
2021/12/31 05:08:31;;;;;;;7.50;6.20;;;;;;;7.46;62.65;95234.53;5089879;28;20177;-77
2021/12/31 05:10:56;;;;;;;7.07;5.93;;;;;;;7.17;63.93;95235.78;5108959;28;20217;-77
2021/12/31 05:13:22;;;;;;;10.40;6.10;;;;;;;7.61;62.04;95243.34;5090739;28;20227;-77
2021/12/31 05:15:50;;;;;;;7.10;5.50;;;;;;;7.10;63.61;95247.78;5109272;28;20182;-77
2021/12/31 05:18:17;;;;;;;6.50;5.33;;;;;;;7.37;62.61;95238.91;5108749;28;20173;-77
2021/12/31 05:20:42;;;;;;;6.23;5.63;;;;;;;7.49;62.35;95242.00;5108985;28;20435;-77
2021/12/31 05:23:08;;;;;;;7.87;6.70;;;;;;;7.47;61.91;95232.72;5108253;28;20461;-77
2021/12/31 05:25:34;;;;;;;6.87;5.80;;;;;;;7.50;62.74;95238.44;5108823;28;20189;-78
2021/12/31 05:27:59;;;;;;;9.83;5.47;;;;;;;7.19;63.17;95244.22;5108285;28;20169;-76
2021/12/31 05:30:25;;;;;;;6.27;5.60;;;;;;;7.07;63.62;95237.66;5089895;28;20219;-77
2021/12/31 05:32:51;;;;;;;6.70;5.73;;;;;;;7.35;63.30;95235.63;5089973;28;20184;-76
2021/12/31 05:35:17;;;;;;;6.00;5.40;;;;;;;7.54;62.13;95244.13;5108128;28;20185;-76
2021/12/31 05:37:42;;;;;;;6.07;5.47;;;;;;;7.60;62.36;95249.50;5108183;28;20476;-77
2021/12/31 05:40:09;;;;;;;7.80;5.73;;;;;;;7.60;61.82;95244.31;5089730;28;20181;-76
2021/12/31 05:42:34;;;;;;;7.13;5.10;;;;;;;7.87;61.04;95233.75;5108271;28;20165;-77
2021/12/31 05:45:00;;;;;;;6.13;5.40;;;;;;;7.07;64.03;95237.66;5088664;28;20426;-77
2021/12/31 05:47:25;;;;;;;7.70;6.17;;;;;;;7.46;63.53;95234.53;5107544;28;20203;-77
2021/12/31 05:49:52;;;;;;;6.93;5.70;;;;;;;6.66;64.81;95240.13;5107126;28;20291;-76
2021/12/31 05:52:17;;;;;;;9.10;6.20;;;;;;;7.31;63.27;95246.53;5090220;28;20181;-77
2021/12/31 05:54:42;;;;;;;8.40;6.20;;;;;;;7.23;63.46;95255.94;5089854;28;20423;-78
2021/12/31 05:57:08;;;;;;;7.33;5.17;;;;;;;6.89;65.13;95261.19;5107705;28;20179;-79
2021/12/31 05:59:33;;;;;;;7.80;7.10;;;;;;;7.45;63.07;95271.13;5107555;28;20199;-78
2021/12/31 06:01:59;;;;;;;9.47;7.10;;;;;;;7.81;61.67;95274.28;5107640;28;20211;-77
2021/12/31 06:04:25;;;;;;;7.00;6.30;;;;;;;7.82;61.63;95273.31;5108005;28;20680;-78
2021/12/31 06:06:50;;;;;;;8.43;7.63;;;;;;;7.67;62.30;95274.94;5107880;28;20188;-77
2021/12/31 06:09:16;;;;;;;8.63;7.23;;;;;;;7.52;63.32;95278.16;5107267;28;20228;-78
2021/12/31 06:11:41;;;;;;;8.83;7.83;;;;;;;7.22;63.95;95262.13;5109853;28;20230;-77
2021/12/31 06:14:09;;;;;;;8.90;6.93;;;;;;;7.48;62.47;95266.44;5107647;28;20196;-77
2021/12/31 06:16:44;;;;;;;8.20;7.20;;;;;;;7.63;62.05;95270.03;5107188;28;20165;-77
2021/12/31 06:19:11;;;;;;;8.27;6.97;;;;;;;7.63;62.52;95258.81;5107788;28;20421;-77
2021/12/31 06:21:42;;;;;;;7.93;6.83;;;;;;;7.54;62.49;95265.78;5107510;28;20410;-77
2021/12/31 06:24:09;;;;;;;8.60;7.67;;;;;;;7.20;63.23;95269.25;5107358;28;20429;-78
2021/12/31 06:26:35;;;;;;;7.90;7.10;;;;;;;7.15;63.85;95281.13;5107474;28;20415;-77
2021/12/31 06:29:01;;;;;;;9.70;7.00;;;;;;;7.60;61.67;95280.75;5089503;28;20467;-78
2021/12/31 06:31:26;;;;;;;10.20;7.87;;;;;;;7.52;62.90;95288.56;5107257;28;20407;-78
2021/12/31 06:33:52;;;;;;;9.77;8.67;;;;;;;7.33;63.30;95294.06;5089175;28;20505;-77
2021/12/31 06:36:20;;;;;;;8.43;7.23;;;;;;;7.72;62.35;95296.09;5106894;28;20442;-77
2021/12/31 06:38:46;;;;;;;8.10;6.77;;;;;;;7.92;61.76;95294.81;5088610;28;20411;-78
2021/12/31 06:41:14;;;;;;;10.73;7.33;;;;;;;8.17;60.71;95303.47;5088729;28;20449;-78
2021/12/31 06:43:39;;;;;;;8.30;7.43;;;;;;;7.57;62.32;95306.31;5107039;28;20411;-77
2021/12/31 06:46:05;;;;;;;8.03;6.43;;;;;;;8.17;60.93;95297.44;5106792;28;20415;-78
2021/12/31 06:48:30;;;;;;;8.63;6.83;;;;;;;8.51;59.52;95306.91;5106718;28;20170;-78
2021/12/31 06:50:56;;;;;;;6.83;5.83;;;;;;;8.51;60.13;95299.09;5107392;28;20188;-78
2021/12/31 06:53:21;;;;;;;8.77;6.50;;;;;;;8.65;59.49;95294.97;5106905;28;20201;-77
2021/12/31 06:55:46;;;;;;;5.77;5.23;;;;;;;8.76;59.14;95287.63;5107524;28;20233;-77
2021/12/31 06:58:12;;;;;;;7.17;6.47;;;;;;;9.09;59.04;95287.53;5106944;28;20172;-78
2021/12/31 07:00:37;;;;;;;3.50;3.03;;;;;;;8.51;61.31;95278.22;5089147;28;20188;-77
2021/12/31 07:03:12;;;;;;;2.73;2.53;;;;;;;8.56;60.51;95278.53;5106817;28;20169;-78
2021/12/31 07:05:43;;;;;;;3.03;2.70;;;;;;;8.44;61.49;95285.06;5106985;28;20181;-78
2021/12/31 07:08:09;;;;;;;2.53;2.33;;;;;;;8.44;61.03;95279.84;5106924;28;20416;-77
2021/12/31 07:10:34;;;;;;;3.20;2.90;;;;;;;8.61;61.12;95284.06;5088512;28;20467;-77
2021/12/31 07:13:04;;;;;;;2.63;2.43;;;;;;;8.75;61.70;95285.19;5106240;28;20475;-77
2021/12/31 07:15:30;;;;;;;3.13;2.93;;;;;;;8.66;61.45;95297.44;5088852;28;20678;-77
2021/12/31 07:17:56;;;;;;;3.20;2.90;;;;;;;9.07;59.52;95293.88;5107237;28;20407;-77
2021/12/31 07:20:21;;;;;;;3.23;2.90;;;;;;;9.23;59.41;95286.00;5107186;28;20555;-77
2021/12/31 07:22:47;;;;;;;2.77;2.57;;;;;;;9.20;60.59;95288.97;5106689;28;20235;-77
2021/12/31 07:25:12;;;;;;;2.50;2.30;;;;;;;9.36;59.89;95277.63;5106497;28;20536;-78
2021/12/31 07:27:43;;;;;;;3.10;2.80;;;;;;;9.48;58.85;95281.47;5089049;28;20185;-77
2021/12/31 07:30:09;;;;;;;3.20;2.90;;;;;;;9.45;59.19;95279.22;5087977;28;20334;-77
2021/12/31 07:32:36;;;;;;;4.47;3.20;;;;;;;9.65;58.66;95268.31;5087322;28;20407;-77
2021/12/31 07:35:02;;;;;;;3.27;2.97;;;;;;;9.45;59.19;95281.81;5087693;28;20427;-78
2021/12/31 07:37:27;;;;;;;3.73;3.00;;;;;;;9.56;58.64;95278.84;5088123;28;20399;-77
2021/12/31 07:40:00;;;;;;;3.70;3.17;;;;;;;9.50;58.90;95287.31;5087910;28;20191;-76
2021/12/31 07:42:25;;;;;;;3.40;3.10;;;;;;;10.05;57.71;95282.09;5087772;28;20172;-78
2021/12/31 07:44:51;;;;;;;5.03;3.97;;;;;;;10.21;57.03;95284.59;5085936;28;20448;-77
2021/12/31 07:47:16;;;;;;;2.30;2.20;;;;;;;8.97;60.40;95265.38;5085601;28;20174;-78
2021/12/31 07:49:42;;;;;;;3.73;2.97;;;;;;;10.02;57.52;95282.47;5067303;28;20213;-77
2021/12/31 07:52:07;;;;;;;2.93;2.43;;;;;;;9.82;57.53;95282.91;5085772;28;20256;-77
2021/12/31 07:54:32;;;;;;;3.97;3.10;;;;;;;9.87;57.72;95285.00;5084395;28;20208;-76
2021/12/31 07:56:58;;;;;;;2.93;2.73;;;;;;;9.35;59.01;95281.19;5087756;28;20177;-77
2021/12/31 07:59:23;;;;;;;2.77;2.57;;;;;;;9.90;57.66;95292.50;5105959;28;20173;-77
2021/12/31 08:01:49;;;;;;;2.60;2.40;;;;;;;9.13;60.38;95295.84;5088767;28;20169;-77
2021/12/31 08:04:14;;;;;;;2.47;2.27;;;;;;;9.38;59.09;95293.94;5087793;28;20188;-77
2021/12/31 08:06:40;;;;;;;2.30;2.10;;;;;;;9.81;58.28;95302.22;5106456;28;20176;-78
2021/12/31 08:09:05;;;;;;;3.70;2.60;;;;;;;9.96;57.75;95295.25;5111658;28;20224;-78
2021/12/31 08:11:31;;;;;;;3.43;2.47;;;;;;;10.39;56.69;95299.19;5110610;28;20173;-77
2021/12/31 08:13:56;;;;;;;3.50;3.20;;;;;;;10.10;57.59;95296.28;5082170;28;20192;-78
2021/12/31 08:16:22;;;;;;;5.00;3.37;;;;;;;10.02;57.34;95298.16;5071961;28;20204;-77
2021/12/31 08:18:47;;;;;;;2.80;2.60;;;;;;;10.26;56.72;95299.75;5090065;28;20193;-77
2021/12/31 08:21:12;;;;;;;3.50;3.20;;;;;;;10.76;55.23;95300.97;5071749;28;20178;-76
2021/12/31 08:23:38;;;;;;;4.33;3.93;;;;;;;10.72;55.93;95299.72;5095403;28;20169;-78
2021/12/31 08:26:05;;;;;;;5.30;3.60;;;;;;;10.90;55.30;95299.38;5092074;28;20181;-78
2021/12/31 08:28:30;;;;;;;3.23;3.00;;;;;;;10.60;55.51;95303.75;5091577;28;20208;-76
2021/12/31 08:30:58;;;;;;;3.93;3.50;;;;;;;10.94;55.20;95304.03;5090857;28;20471;-78
2021/12/31 08:33:24;;;;;;;9.10;7.43;;;;;;;11.43;53.37;95309.75;5087176;28;20177;-77
2021/12/31 08:35:50;;;;;;;16.97;13.13;;;;;;;11.06;54.23;95301.81;5071826;28;20736;-78
2021/12/31 08:38:15;;;;;;;15.67;11.83;;;;;;;10.84;54.65;95300.91;5071248;28;20499;-78
2021/12/31 08:40:41;;;;;;;19.60;11.90;;;;;;;10.71;55.09;95296.25;5089173;28;20517;-78
2021/12/31 08:43:07;;;;;;;13.17;11.60;;;;;;;10.48;54.95;95298.13;5088945;28;20184;-78
2021/12/31 08:45:33;;;;;;;16.80;12.03;;;;;;;9.97;56.57;95281.16;5109559;28;20217;-77
2021/12/31 08:48:00;;;;;;;13.83;9.17;;;;;;;9.56;58.19;95281.44;5090669;28;20407;-78
2021/12/31 08:50:26;;;;;;;10.73;8.67;;;;;;;9.73;57.64;95281.31;5090960;28;20466;-77
2021/12/31 08:52:52;;;;;;;14.37;11.23;;;;;;;10.00;56.96;95285.25;5091124;28;20455;-78
2021/12/31 08:55:17;;;;;;;15.60;12.63;;;;;;;10.66;55.69;95282.09;5108837;28;20430;-78
2021/12/31 08:57:43;;;;;;;16.40;12.70;;;;;;;10.61;55.26;95274.78;5091005;28;20421;-78
2021/12/31 09:00:10;;;;;;;12.40;10.40;;;;;;;10.51;55.51;95282.09;5091056;28;20254;-77
2021/12/31 09:02:38;;;;;;;14.27;11.40;;;;;;;10.74;54.58;95280.22;5108896;28;20411;-79
2021/12/31 09:05:04;;;;;;;14.80;10.60;;;;;;;9.61;58.72;95280.09;5108862;28;20422;-77
2021/12/31 09:07:29;;;;;;;13.70;10.40;;;;;;;10.61;55.59;95274.78;5091229;28;20505;-76
2021/12/31 09:09:55;;;;;;;15.00;11.70;;;;;;;10.30;56.95;95275.72;5109715;28;20466;-77
2021/12/31 09:12:21;;;;;;;13.47;11.93;;;;;;;9.47;59.16;95266.78;5110695;28;20774;-77
2021/12/31 09:14:46;;;;;;;14.90;10.87;;;;;;;9.72;59.06;95267.44;5086571;28;20189;-78
2021/12/31 09:17:11;;;;;;;19.27;12.90;;;;;;;9.99;57.78;95262.69;5088351;28;20624;-77
2021/12/31 09:19:37;;;;;;;16.20;13.10;;;;;;;10.76;56.35;95264.34;5088219;28;20182;-77
2021/12/31 09:22:04;;;;;;;19.90;14.80;;;;;;;10.99;55.64;95259.00;5070384;28;20174;-78
2021/12/31 09:24:30;;;;;;;13.80;12.23;;;;;;;11.09;55.42;95256.91;5088371;28;20185;-78
2021/12/31 09:26:56;;;;;;;15.83;11.63;;;;;;;11.16;55.76;95250.97;5070290;28;20420;-78
2021/12/31 09:29:23;;;;;;;16.70;13.10;;;;;;;11.28;55.42;95254.72;5088039;28;20464;-78
2021/12/31 09:31:51;;;;;;;19.13;12.97;;;;;;;12.03;53.05;95261.41;5088216;28;20181;-77
2021/12/31 09:34:17;;;;;;;15.70;12.00;;;;;;;11.76;53.79;95257.69;5103909;28;20462;-78
2021/12/31 09:36:43;;;;;;;10.07;9.00;;;;;;;11.64;54.15;95251.31;5090275;28;20410;-77
2021/12/31 09:39:09;;;;;;;11.40;10.20;;;;;;;12.01;53.29;95250.28;5107936;28;20430;-78
2021/12/31 09:41:34;;;;;;;9.00;7.50;;;;;;;12.19;52.38;95249.03;5107550;28;20185;-78
2021/12/31 09:44:00;;;;;;;11.60;8.60;;;;;;;12.59;52.20;95238.81;5096018;28;20451;-77
2021/12/31 09:46:26;;;;;;;13.33;9.00;;;;;;;12.90;51.94;95243.69;5088702;28;20185;-78
2021/12/31 09:48:52;;;;;;;8.00;6.33;;;;;;;12.87;50.85;95238.81;5087446;28;20196;-77
2021/12/31 09:51:18;;;;;;;6.90;6.20;;;;;;;12.79;51.50;95238.97;5085991;28;20625;-77
2021/12/31 09:53:43;;;;;;;8.33;6.37;;;;;;;13.19;50.44;95239.19;5087708;28;20193;-78
2021/12/31 09:56:09;;;;;;;8.83;7.10;;;;;;;13.65;49.97;95234.09;5069658;28;20416;-78
2021/12/31 09:58:36;;;;;;;6.97;5.20;;;;;;;14.16;48.45;95227.50;5069302;28;20196;-77
2021/12/31 10:01:03;;;;;;;8.50;6.70;;;;;;;13.15;49.55;95220.34;5088288;28;20186;-78
2021/12/31 10:03:33;;;;;;;6.40;5.43;;;;;;;13.85;48.35;95218.34;5074068;28;20426;-78
2021/12/31 10:06:01;;;;;;;6.20;5.23;;;;;;;14.43;48.39;95209.06;5107847;28;20886;-77
2021/12/31 10:08:31;;;;;;;6.30;5.50;;;;;;;13.83;48.83;95211.69;5089212;28;20407;-78
2021/12/31 10:11:22;;;;;;;5.70;4.80;;;;;;;14.45;48.50;95212.28;5107303;28;20458;-78
2021/12/31 10:14:00;;;;;;;5.43;4.67;;;;;;;13.56;48.89;95201.09;5073216;28;20460;-77
2021/12/31 10:16:33;;;;;;;4.30;3.90;;;;;;;14.40;47.82;95202.38;5089189;28;20403;-77
2021/12/31 10:19:30;;;;;;;5.77;4.37;;;;;;;15.10;46.31;95206.28;5106933;28;20407;-78
2021/12/31 10:21:56;;;;;;;4.53;4.13;;;;;;;15.02;46.29;95192.34;5062208;28;20450;-78
2021/12/31 10:24:25;;;;;;;4.30;3.50;;;;;;;14.52;47.21;95194.66;5076130;28;20428;-77
2021/12/31 10:26:56;;;;;;;3.83;3.20;;;;;;;14.52;46.88;95197.28;5085294;28;20480;-78
2021/12/31 10:29:22;;;;;;;4.40;3.70;;;;;;;14.76;46.38;95193.25;5086230;28;20452;-78
2021/12/31 10:31:51;;;;;;;3.40;3.10;;;;;;;14.10;47.90;95183.56;5086259;28;20408;-78
2021/12/31 10:34:34;;;;;;;4.27;3.30;;;;;;;14.48;48.17;95190.81;5086645;28;20170;-78
2021/12/31 10:37:02;;;;;;;5.33;3.73;;;;;;;14.83;47.75;95174.75;5068397;28;20764;-78
2021/12/31 10:39:31;;;;;;;5.20;3.10;;;;;;;15.77;45.80;95169.88;5086438;28;20416;-78
2021/12/31 10:41:59;;;;;;;3.60;3.10;;;;;;;15.72;45.41;95175.75;5086656;28;20431;-78
2021/12/31 10:44:50;;;;;;;7.23;3.20;;;;;;;15.71;45.63;95160.97;5104850;28;20439;-78
2021/12/31 10:47:23;;;;;;;3.20;3.00;;;;;;;14.91;47.60;95157.91;5106562;28;20408;-77
2021/12/31 10:50:04;;;;;;;5.00;3.50;;;;;;;14.77;48.80;95152.69;5106542;28;21004;-78
2021/12/31 10:53:10;;;;;;;4.00;3.30;;;;;;;14.79;48.34;95157.75;5088292;28;20445;-77
2021/12/31 10:55:39;;;;;;;4.10;3.70;;;;;;;14.93;48.58;95155.88;5097258;28;20422;-78
2021/12/31 10:58:10;;;;;;;3.87;3.57;;;;;;;15.17;48.27;95157.00;5106335;28;20419;-78
2021/12/31 11:00:41;;;;;;;2.80;2.60;;;;;;;14.65;48.97;95157.00;5104425;28;20439;-78
2021/12/31 11:03:07;;;;;;;4.13;3.50;;;;;;;14.66;49.48;95166.50;5088521;28;20427;-77
2021/12/31 11:05:34;;;;;;;4.33;3.43;;;;;;;14.17;50.29;95168.59;5086103;28;20416;-77
2021/12/31 11:08:02;;;;;;;2.67;2.47;;;;;;;13.78;51.60;95154.41;5068011;28;20416;-77
2021/12/31 11:10:33;;;;;;;2.37;2.20;;;;;;;14.30;49.79;95170.38;5085667;28;20452;-77
2021/12/31 11:13:02;;;;;;;3.73;3.33;;;;;;;13.53;52.26;95171.78;5112053;28;21138;-77
2021/12/31 11:15:28;;;;;;;3.93;3.63;;;;;;;13.46;52.36;95156.78;5126389;28;20433;-77
2021/12/31 11:17:54;;;;;;;4.00;3.70;;;;;;;14.45;50.46;95172.78;5126479;28;20410;-77
2021/12/31 11:20:24;;;;;;;5.17;3.90;;;;;;;14.55;49.31;95165.28;5123318;28;20507;-78
2021/12/31 11:22:51;;;;;;;3.20;2.73;;;;;;;13.77;51.88;95168.56;5106158;28;20197;-77
2021/12/31 11:25:17;;;;;;;2.07;1.97;;;;;;;13.32;52.36;95164.81;5105730;28;20430;-77
2021/12/31 11:27:45;;;;;;;4.23;3.60;;;;;;;13.62;52.65;95165.28;5087012;28;20407;-77
2021/12/31 11:30:38;;;;;;;2.90;2.60;;;;;;;13.05;53.56;95167.34;5087490;28;20217;-77
2021/12/31 11:33:14;;;;;;;4.50;3.67;;;;;;;13.42;52.80;95171.34;5088211;28;20586;-77
2021/12/31 11:36:01;;;;;;;3.97;3.63;;;;;;;13.11;53.28;95178.88;5106603;28;20450;-77
2021/12/31 11:38:27;;;;;;;4.07;3.37;;;;;;;13.23;53.71;95166.81;5088045;28;20471;-78
2021/12/31 11:41:09;;;;;;;4.53;4.07;;;;;;;13.34;53.55;95175.97;5084496;28;20432;-77